createdAt,value
2023-03-26T00:02:46.031Z,2.60
2023-03-26T00:07:48.768Z,2.50
2023-03-26T00:12:51.716Z,2.17
2023-03-26T00:17:54.485Z,2.60
2023-03-26T00:22:56.868Z,2.40
2023-03-26T00:27:59.250Z,2.70
2023-03-26T00:33:02.467Z,9.67
2023-03-26T00:38:04.825Z,2.50
2023-03-26T00:43:18.635Z,2.03
2023-03-26T00:48:31.364Z,2.43
2023-03-26T00:53:41.262Z,2.33
2023-03-26T00:58:44.273Z,3.50
2023-03-26T01:04:04.898Z,2.10
2023-03-26T01:09:21.571Z,2.00
2023-03-26T01:14:26.901Z,1.70
2023-03-26T01:19:34.187Z,2.00
2023-03-26T01:24:37.575Z,1.43
2023-03-26T01:30:24.242Z,2.23
2023-03-26T01:35:45.908Z,1.70
2023-03-26T01:40:52.138Z,1.30
2023-03-26T01:45:56.503Z,1.20
2023-03-26T01:50:59.084Z,1.30
2023-03-26T01:56:29.292Z,1.37
2023-03-26T02:02:04.845Z,1.40
2023-03-26T02:07:14.838Z,1.40
2023-03-26T02:12:18.705Z,1.27
2023-03-26T02:17:24.338Z,1.70
2023-03-26T02:22:30.200Z,2.20
2023-03-26T02:27:34.367Z,1.50
2023-03-26T02:32:36.993Z,1.43
2023-03-26T02:37:40.095Z,1.10
2023-03-26T02:42:50.779Z,1.17
2023-03-26T02:47:53.191Z,1.13
2023-03-26T02:53:16.105Z,5.83
2023-03-26T02:58:25.251Z,1.13
2023-03-26T03:03:28.017Z,1.10
2023-03-26T03:08:39.256Z,0.70
2023-03-26T03:13:44.785Z,1.10
2023-03-26T03:18:54.541Z,1.00
2023-03-26T03:24:00.209Z,1.90
2023-03-26T03:29:06.579Z,1.00
2023-03-26T03:34:10.899Z,2.90
2023-03-26T03:39:19.706Z,1.20
2023-03-26T03:44:22.182Z,1.23
2023-03-26T03:49:24.958Z,2.73
2023-03-26T03:54:28.312Z,0.90
2023-03-26T03:59:47.839Z,1.00
2023-03-26T04:04:52.851Z,1.30
2023-03-26T04:09:57.210Z,1.70
2023-03-26T04:15:01.368Z,1.20
2023-03-26T04:20:06.483Z,1.03
2023-03-26T04:25:11.128Z,2.33
2023-03-26T04:30:21.239Z,3.50
2023-03-26T04:35:35.978Z,1.30
2023-03-26T04:40:42.285Z,1.03
2023-03-26T04:46:10.535Z,1.03
2023-03-26T04:51:25.806Z,1.20
2023-03-26T04:57:00.996Z,1.17
2023-03-26T05:02:23.253Z,0.60
2023-03-26T05:07:28.580Z,2.10
2023-03-26T05:12:32.733Z,2.47
2023-03-26T05:17:42.977Z,1.10
2023-03-26T05:22:53.842Z,0.97
2023-03-26T05:28:07.749Z,0.83
2023-03-26T05:33:27.477Z,0.90
2023-03-26T05:38:37.673Z,0.80
2023-03-26T05:43:44.867Z,1.60
2023-03-26T05:48:52.075Z,1.27
2023-03-26T05:53:54.712Z,0.70
2023-03-26T05:59:16.151Z,0.53
2023-03-26T06:04:41.071Z,0.80
2023-03-26T06:10:05.917Z,0.73
2023-03-26T06:15:09.264Z,1.17
2023-03-26T06:20:30.129Z,1.20
2023-03-26T06:25:35.878Z,1.30
2023-03-26T06:31:13.542Z,0.73
2023-03-26T06:36:24.916Z,1.00
2023-03-26T06:41:27.461Z,1.10
2023-03-26T06:46:37.025Z,1.67
2023-03-26T06:51:58.032Z,1.40
2023-03-26T06:57:18.808Z,0.80
2023-03-26T07:02:41.363Z,0.80
2023-03-26T07:08:02.943Z,1.00
2023-03-26T07:13:23.531Z,1.00
2023-03-26T07:18:25.869Z,0.70
2023-03-26T07:23:28.936Z,0.80
2023-03-26T07:29:04.694Z,0.50
2023-03-26T07:34:40.664Z,1.60
2023-03-26T07:39:59.181Z,0.77
2023-03-26T07:45:14.613Z,0.87
2023-03-26T07:50:26.402Z,1.00
2023-03-26T07:56:00.665Z,8.67
2023-03-26T08:01:42.134Z,1.40
2023-03-26T08:07:11.376Z,1.40
2023-03-26T08:13:15.546Z,0.80
2023-03-26T08:18:44.630Z,1.13
2023-03-26T08:24:08.257Z,1.60
2023-03-26T08:29:41.269Z,2.97
2023-03-26T08:34:44.204Z,1.37
2023-03-26T08:39:47.773Z,1.23
2023-03-26T08:45:09.084Z,1.40
2023-03-26T08:50:43.200Z,1.00
2023-03-26T08:55:48.291Z,3.40
2023-03-26T09:01:08.547Z,1.87
2023-03-26T09:06:21.036Z,0.80
2023-03-26T09:11:29.305Z,3.00
2023-03-26T09:16:55.942Z,0.77
2023-03-26T09:22:10.560Z,4.60
2023-03-26T09:27:24.929Z,1.97
2023-03-26T09:32:52.105Z,0.70
2023-03-26T09:38:12.299Z,0.97
2023-03-26T09:43:46.826Z,3.43
2023-03-26T09:49:03.733Z,6.33
2023-03-26T09:54:18.461Z,2.60
2023-03-26T09:59:42.958Z,2.13
2023-03-26T10:05:08.356Z,1.10
2023-03-26T10:10:41.618Z,1.80
2023-03-26T10:16:08.089Z,0.73
2023-03-26T10:21:34.787Z,0.50
2023-03-26T10:27:09.711Z,0.77
2023-03-26T10:32:08.610Z,0.53
2023-03-26T10:37:31.271Z,1.70
2023-03-26T10:43:12.814Z,1.20
2023-03-26T10:48:43.053Z,0.70
2023-03-26T10:53:53.808Z,1.07
2023-03-26T10:58:57.168Z,1.00
2023-03-26T11:04:27.988Z,1.13
2023-03-26T11:10:09.278Z,0.90
2023-03-26T11:15:32.652Z,0.73
2023-03-26T11:20:47.215Z,1.00
2023-03-26T11:26:13.601Z,1.53
2023-03-26T11:31:36.890Z,1.30
2023-03-26T11:36:43.849Z,0.80
2023-03-26T11:41:47.454Z,1.57
2023-03-26T11:47:10.065Z,1.80
2023-03-26T11:52:12.617Z,1.57
2023-03-26T11:57:33.393Z,0.60
2023-03-26T12:02:40.614Z,0.70
2023-03-26T12:08:00.209Z,1.10
2023-03-26T12:13:16.249Z,2.80
2023-03-26T12:18:26.522Z,6.27
2023-03-26T12:23:42.378Z,1.33
2023-03-26T12:28:47.078Z,1.50
2023-03-26T12:34:13.511Z,1.10
2023-03-26T12:40:09.140Z,0.70
2023-03-26T12:45:02.511Z,1.20
2023-03-26T12:50:09.925Z,0.90
2023-03-26T12:55:30.385Z,0.80
2023-03-26T13:00:43.557Z,1.50
2023-03-26T13:06:11.674Z,0.50
2023-03-26T13:11:25.538Z,0.67
2023-03-26T13:16:35.344Z,0.97
2023-03-26T13:22:05.726Z,0.80
2023-03-26T13:27:08.777Z,1.17
2023-03-26T13:32:42.505Z,1.10
2023-03-26T13:37:53.395Z,1.00
2023-03-26T13:43:11.187Z,1.00
2023-03-26T13:48:19.234Z,1.00
2023-03-26T13:53:28.516Z,1.80
2023-03-26T13:58:52.505Z,1.17
2023-03-26T14:04:06.358Z,1.00
2023-03-26T14:09:29.690Z,10.73
2023-03-26T14:14:49.011Z,5.63
2023-03-26T14:20:22.520Z,32.77
2023-03-26T14:25:51.044Z,6.43
2023-03-26T14:31:14.539Z,18.27
2023-03-26T14:36:28.030Z,28.87
2023-03-26T14:41:49.102Z,1.73
2023-03-26T14:46:57.688Z,3.37
2023-03-26T14:52:27.962Z,9.10
2023-03-26T14:57:38.903Z,7.47
2023-03-26T15:03:09.177Z,1.33
2023-03-26T15:08:34.356Z,6.80
2023-03-26T15:13:40.799Z,4.40
2023-03-26T15:19:02.122Z,6.50
2023-03-26T15:24:37.829Z,3.10
2023-03-26T15:29:49.250Z,5.50
2023-03-26T15:35:07.175Z,1.40
2023-03-26T15:40:43.036Z,4.40
2023-03-26T15:45:56.341Z,2.80
2023-03-26T15:51:17.954Z,6.17
2023-03-26T15:56:26.048Z,2.90
2023-03-26T16:02:02.805Z,19.77
2023-03-26T16:07:23.905Z,14.17
2023-03-26T16:12:33.015Z,5.20
2023-03-26T16:18:11.944Z,15.37
2023-03-26T16:23:47.509Z,6.50
2023-03-26T16:29:03.904Z,4.70
2023-03-26T16:34:08.325Z,10.73
2023-03-26T16:39:23.820Z,16.33
2023-03-26T16:44:37.878Z,13.33
2023-03-26T16:50:08.820Z,5.13
2023-03-26T16:55:43.185Z,3.80
2023-03-26T17:00:55.107Z,2.40
2023-03-26T17:06:34.051Z,2.40
2023-03-26T17:12:07.270Z,2.00
2023-03-26T17:17:40.294Z,3.40
2023-03-26T17:22:47.722Z,2.00
2023-03-26T17:28:17.924Z,8.47
2023-03-26T17:33:26.842Z,11.00
2023-03-26T17:38:29.093Z,8.30
2023-03-26T17:43:51.744Z,19.37
2023-03-26T17:49:12.026Z,23.97
2023-03-26T17:54:32.555Z,15.97
2023-03-26T17:59:38.797Z,7.03
2023-03-26T18:04:45.721Z,7.07
2023-03-26T18:10:17.225Z,8.63
2023-03-26T18:15:46.760Z,24.57
2023-03-26T18:20:51.225Z,18.30
2023-03-26T18:26:09.574Z,27.33
2023-03-26T18:31:23.016Z,19.47
2023-03-26T18:36:28.179Z,18.07
2023-03-26T18:41:41.723Z,25.07
2023-03-26T18:46:44.910Z,20.47
2023-03-26T18:51:56.525Z,18.93
2023-03-26T18:57:16.156Z,12.73
2023-03-26T19:02:20.589Z,8.33
2023-03-26T19:07:25.955Z,8.27
2023-03-26T19:12:33.199Z,12.50
2023-03-26T19:17:46.003Z,10.73
2023-03-26T19:22:49.767Z,10.60
2023-03-26T19:27:52.568Z,16.67
2023-03-26T19:32:55.729Z,19.90
2023-03-26T19:38:26.266Z,24.43
2023-03-26T19:43:28.997Z,31.10
2023-03-26T19:48:46.197Z,24.70
2023-03-26T19:53:55.036Z,24.40
2023-03-26T19:58:57.541Z,38.60
2023-03-26T20:04:04.082Z,35.17
2023-03-26T20:09:06.428Z,37.50
2023-03-26T20:14:16.941Z,36.80
2023-03-26T20:19:20.577Z,42.90
2023-03-26T20:24:24.698Z,32.43
2023-03-26T20:29:28.709Z,30.90
2023-03-26T20:34:32.263Z,30.83
2023-03-26T20:39:34.729Z,47.40
2023-03-26T20:44:37.296Z,64.03
2023-03-26T20:49:40.298Z,73.03
2023-03-26T20:54:42.795Z,48.60
2023-03-26T20:59:45.687Z,35.43
2023-03-26T21:04:48.305Z,33.03
2023-03-26T21:09:50.927Z,29.83
2023-03-26T21:14:55.867Z,27.57
2023-03-26T21:20:06.520Z,30.87
2023-03-26T21:25:17.312Z,73.83
2023-03-26T21:30:20.083Z,45.60
2023-03-26T21:35:22.823Z,34.30
2023-03-26T21:40:25.902Z,43.90
2023-03-26T21:45:28.834Z,36.37
2023-03-26T21:50:31.585Z,21.57
2023-03-26T21:56:00.138Z,12.37
2023-03-26T22:01:31.513Z,8.10
2023-03-26T22:06:43.801Z,7.23
2023-03-26T22:11:46.312Z,5.50
2023-03-26T22:16:48.766Z,4.50
2023-03-26T22:21:51.457Z,4.17
2023-03-26T22:26:53.842Z,4.17
2023-03-26T22:31:56.395Z,3.87
2023-03-26T22:36:58.670Z,3.87
2023-03-26T22:42:03.719Z,3.87
2023-03-26T22:47:06.049Z,3.83
2023-03-26T22:52:08.544Z,4.63
2023-03-26T22:57:10.997Z,4.20
2023-03-26T23:02:13.611Z,5.53
2023-03-26T23:07:15.930Z,6.40
2023-03-26T23:12:18.614Z,5.77
2023-03-26T23:17:21.296Z,5.20
2023-03-26T23:22:23.682Z,4.17
2023-03-26T23:27:26.150Z,3.37
2023-03-26T23:32:28.539Z,4.43
2023-03-26T23:37:34.907Z,4.23
2023-03-26T23:42:37.719Z,6.07
2023-03-26T23:47:42.261Z,7.63
2023-03-26T23:52:45.862Z,6.30
2023-03-26T23:57:48.596Z,6.60
